createdAt,value
2022-12-28T00:01:08.626Z,16.13
2022-12-28T00:04:16.453Z,13.33
2022-12-28T00:07:22.605Z,13.87
2022-12-28T00:11:07.844Z,14.93
2022-12-28T00:13:57.687Z,15.97
2022-12-28T00:17:04.333Z,17.33
2022-12-28T00:20:12.151Z,15.97
2022-12-28T00:23:18.663Z,18.73
2022-12-28T00:26:24.992Z,18.27
2022-12-28T00:29:32.521Z,22.93
2022-12-28T00:32:39.099Z,21.27
2022-12-28T00:35:45.495Z,19.87
2022-12-28T00:38:51.754Z,18.70
2022-12-28T00:41:57.999Z,13.63
2022-12-28T00:45:06.223Z,11.40
2022-12-28T00:48:12.628Z,9.80
2022-12-28T00:51:20.967Z,8.77
2022-12-28T00:54:27.031Z,9.97
2022-12-28T00:57:33.958Z,11.07
2022-12-28T01:00:41.651Z,10.50
2022-12-28T01:03:48.551Z,8.60
2022-12-28T01:06:54.924Z,9.93
2022-12-28T01:10:00.931Z,6.10
2022-12-28T01:13:07.495Z,12.70
2022-12-28T01:16:17.165Z,13.77
2022-12-28T01:19:24.408Z,13.33
2022-12-28T01:22:30.345Z,13.00
2022-12-28T01:25:36.841Z,14.30
2022-12-28T01:28:43.124Z,13.77
2022-12-28T01:31:50.922Z,10.47
2022-12-28T01:34:57.171Z,11.23
2022-12-28T01:38:03.359Z,7.07
2022-12-28T01:41:10.640Z,5.43
2022-12-28T01:44:43.699Z,6.73
2022-12-28T01:47:54.234Z,8.87
2022-12-28T01:51:00.661Z,7.20
2022-12-28T01:54:07.099Z,7.70
2022-12-28T01:57:13.855Z,7.60
2022-12-28T02:00:20.238Z,8.80
2022-12-28T02:03:30.582Z,7.03
2022-12-28T02:06:36.589Z,6.93
2022-12-28T02:09:45.156Z,6.63
2022-12-28T02:13:11.970Z,6.90
2022-12-28T02:16:18.698Z,7.07
2022-12-28T02:19:38.345Z,7.20
2022-12-28T02:23:05.306Z,8.30
2022-12-28T02:26:40.601Z,9.37
2022-12-28T02:30:04.757Z,8.10
2022-12-28T02:33:18.833Z,9.03
2022-12-28T02:36:31.895Z,6.20
2022-12-28T02:39:42.813Z,9.47
2022-12-28T02:42:50.627Z,8.33
2022-12-28T02:46:15.096Z,8.27
2022-12-28T02:49:40.797Z,5.93
2022-12-28T02:53:19.739Z,7.63
2022-12-28T02:56:38.277Z,7.00
2022-12-28T03:00:02.003Z,7.33
2022-12-28T03:03:23.333Z,7.07
2022-12-28T03:06:59.483Z,8.00
2022-12-28T03:10:15.768Z,8.30
2022-12-28T03:13:46.045Z,7.47
2022-12-28T03:17:13.159Z,9.30
2022-12-28T03:20:42.153Z,12.20
2022-12-28T03:24:07.131Z,9.50
2022-12-28T03:27:34.209Z,10.47
2022-12-28T03:31:02.044Z,11.23
2022-12-28T03:34:08.761Z,10.80
2022-12-28T03:37:25.769Z,11.30
2022-12-28T03:40:40.027Z,9.37
2022-12-28T03:43:50.190Z,10.23
2022-12-28T03:47:01.776Z,9.17
2022-12-28T03:50:08.499Z,9.93
2022-12-28T03:53:17.544Z,9.90
2022-12-28T03:56:26.330Z,9.47
2022-12-28T03:59:32.429Z,9.27
2022-12-28T04:02:39.514Z,9.50
2022-12-28T04:05:45.660Z,9.73
2022-12-28T04:08:53.337Z,11.43
2022-12-28T04:11:59.407Z,10.07
2022-12-28T04:15:06.426Z,7.03
2022-12-28T04:18:12.496Z,6.77
2022-12-28T04:21:18.787Z,6.77
2022-12-28T04:24:26.487Z,6.90
2022-12-28T04:27:32.757Z,12.47
2022-12-28T04:30:39.024Z,19.90
2022-12-28T04:33:45.092Z,12.60
2022-12-28T04:36:51.020Z,11.40
2022-12-28T04:39:58.481Z,9.20
2022-12-28T04:43:04.890Z,8.77
2022-12-28T04:46:14.074Z,11.20
2022-12-28T04:49:20.081Z,9.57
2022-12-28T04:52:26.437Z,9.40
2022-12-28T04:55:35.767Z,18.63
2022-12-28T04:58:42.371Z,13.30
2022-12-28T05:01:48.549Z,11.93
2022-12-28T05:04:54.803Z,13.63
2022-12-28T05:08:02.335Z,11.40
2022-12-28T05:11:13.697Z,9.87
2022-12-28T05:14:19.528Z,13.27
2022-12-28T05:17:25.719Z,12.87
2022-12-28T05:20:32.007Z,8.27
2022-12-28T05:23:39.636Z,10.33
2022-12-28T05:26:47.523Z,9.20
2022-12-28T05:29:53.852Z,9.87
2022-12-28T05:33:00.137Z,12.70
2022-12-28T05:36:06.726Z,11.30
2022-12-28T05:39:12.901Z,12.90
2022-12-28T05:42:20.482Z,14.87
2022-12-28T05:45:26.982Z,14.23
2022-12-28T05:48:34.174Z,20.33
2022-12-28T05:51:40.632Z,27.50
2022-12-28T05:54:46.761Z,30.37
2022-12-28T05:57:55.862Z,26.20
2022-12-28T06:01:07.022Z,24.57
2022-12-28T06:04:17.346Z,26.63
2022-12-28T06:07:23.828Z,19.67
2022-12-28T06:10:30.132Z,21.70
2022-12-28T06:13:38.747Z,17.37
2022-12-28T06:16:46.068Z,21.87
2022-12-28T06:19:52.271Z,20.87
2022-12-28T06:22:59.367Z,20.03
2022-12-28T06:26:07.929Z,19.23
2022-12-28T06:29:15.383Z,19.53
2022-12-28T06:32:21.521Z,27.70
2022-12-28T06:35:28.000Z,28.40
2022-12-28T06:38:34.656Z,23.43
2022-12-28T06:41:42.035Z,24.40
2022-12-28T06:44:49.400Z,21.20
2022-12-28T06:47:55.591Z,23.27
2022-12-28T06:51:03.320Z,22.17
2022-12-28T06:54:10.699Z,15.27
2022-12-28T06:57:16.856Z,12.47
2022-12-28T07:00:24.569Z,10.37
2022-12-28T07:03:30.797Z,10.80
2022-12-28T07:06:39.780Z,12.07
2022-12-28T07:09:46.384Z,14.37
2022-12-28T07:12:52.667Z,14.00
2022-12-28T07:16:03.895Z,15.53
2022-12-28T07:19:10.597Z,12.97
2022-12-28T07:22:17.003Z,18.57
2022-12-28T07:25:23.241Z,28.10
2022-12-28T07:28:29.505Z,32.53
2022-12-28T07:31:44.849Z,35.57
2022-12-28T07:34:51.937Z,29.30
2022-12-28T07:37:58.397Z,33.47
2022-12-28T07:41:06.099Z,31.40
2022-12-28T07:44:12.285Z,30.43
2022-12-28T07:47:20.366Z,29.63
2022-12-28T07:50:27.174Z,26.23
2022-12-28T07:53:35.287Z,26.60
2022-12-28T07:59:47.343Z,41.03
2022-12-28T08:02:58.144Z,45.63
2022-12-28T08:06:06.770Z,49.83
2022-12-28T08:09:15.182Z,42.23
2022-12-28T08:12:21.782Z,41.00
2022-12-28T08:15:28.441Z,30.57
2022-12-28T08:18:36.170Z,28.60
2022-12-28T08:21:44.719Z,23.13
2022-12-28T08:24:51.048Z,19.07
2022-12-28T08:27:57.576Z,13.50
2022-12-28T08:31:08.458Z,14.60
2022-12-28T08:34:18.564Z,11.50
2022-12-28T08:37:24.730Z,11.97
2022-12-28T08:40:30.972Z,15.03
2022-12-28T08:43:37.346Z,17.10
2022-12-28T08:46:43.937Z,15.77
2022-12-28T08:49:51.749Z,14.93
2022-12-28T08:52:58.040Z,17.10
2022-12-28T08:56:06.773Z,17.40
2022-12-28T08:59:15.744Z,18.80
2022-12-28T09:02:22.166Z,16.40
2022-12-28T09:05:34.507Z,13.60
2022-12-28T09:08:56.811Z,16.00
2022-12-28T09:12:09.638Z,15.50
2022-12-28T09:15:16.259Z,21.50
2022-12-28T09:18:22.469Z,19.03
2022-12-28T09:21:32.403Z,21.43
2022-12-28T09:24:39.045Z,14.77
2022-12-28T09:27:50.578Z,16.70
2022-12-28T09:31:00.259Z,24.97
2022-12-28T09:34:35.701Z,25.30
2022-12-28T09:37:35.848Z,22.03
2022-12-28T09:40:42.295Z,19.27
2022-12-28T09:43:49.627Z,21.70
2022-12-28T09:47:02.029Z,23.33
2022-12-28T09:50:30.085Z,21.90
2022-12-28T09:53:38.352Z,23.23
2022-12-28T09:56:48.007Z,28.27
2022-12-28T09:59:54.804Z,26.67
2022-12-28T10:03:05.093Z,20.57
2022-12-28T10:06:13.861Z,18.57
2022-12-28T10:09:26.968Z,22.80
2022-12-28T10:12:33.273Z,27.53
2022-12-28T10:15:39.433Z,19.33
2022-12-28T10:18:45.735Z,18.47
2022-12-28T10:22:00.604Z,19.77
2022-12-28T10:25:17.070Z,17.67
2022-12-28T10:28:28.487Z,15.23
2022-12-28T10:31:36.502Z,15.37
2022-12-28T10:34:56.135Z,15.77
2022-12-28T10:38:05.355Z,14.37
2022-12-28T10:41:15.977Z,18.90
2022-12-28T10:44:39.448Z,22.17
2022-12-28T10:47:50.080Z,23.43
2022-12-28T10:50:59.447Z,23.43
2022-12-28T10:54:27.987Z,30.27
2022-12-28T10:57:55.766Z,30.43
2022-12-28T11:01:08.670Z,31.53
2022-12-28T11:04:19.457Z,29.83
2022-12-28T11:07:32.232Z,26.23
2022-12-28T11:10:40.492Z,24.97
2022-12-28T11:13:53.891Z,36.70
2022-12-28T11:17:05.669Z,41.93
2022-12-28T11:20:19.289Z,37.50
2022-12-28T11:23:31.652Z,30.73
2022-12-28T11:26:45.549Z,24.80
2022-12-28T11:29:54.453Z,24.13
2022-12-28T11:33:05.000Z,18.63
2022-12-28T11:36:16.865Z,28.23
2022-12-28T11:39:43.994Z,30.13
2022-12-28T11:42:57.653Z,32.47
2022-12-28T11:46:07.256Z,36.20
2022-12-28T11:49:32.571Z,39.10
2022-12-28T11:52:47.653Z,37.67
2022-12-28T11:56:04.609Z,37.30
2022-12-28T11:59:25.552Z,40.23
2022-12-28T12:02:42.689Z,37.63
2022-12-28T12:05:53.368Z,39.10
2022-12-28T12:09:00.089Z,37.77
2022-12-28T12:12:37.044Z,45.00
2022-12-28T12:15:45.820Z,41.13
2022-12-28T12:18:56.575Z,45.10
2022-12-28T12:22:07.900Z,50.20
2022-12-28T12:25:23.102Z,45.83
2022-12-28T12:28:40.544Z,47.90
2022-12-28T12:31:51.901Z,55.30
2022-12-28T12:35:04.888Z,47.53
2022-12-28T12:38:22.932Z,54.80
2022-12-28T12:41:37.980Z,54.87
2022-12-28T12:44:56.578Z,51.87
2022-12-28T12:48:20.105Z,57.47
2022-12-28T12:51:34.486Z,48.20
2022-12-28T12:54:54.238Z,39.47
2022-12-28T12:58:06.816Z,21.33
2022-12-28T13:01:29.165Z,21.03
2022-12-28T13:04:37.263Z,15.47
2022-12-28T13:07:45.412Z,18.40
2022-12-28T13:14:21.016Z,23.50
2022-12-28T13:17:28.258Z,19.37
2022-12-28T13:20:34.938Z,22.20
2022-12-28T13:23:46.524Z,19.67
2022-12-28T13:26:53.337Z,14.70
2022-12-28T13:30:01.525Z,16.10
2022-12-28T13:33:22.324Z,17.40
2022-12-28T13:36:28.754Z,10.50
2022-12-28T13:39:41.811Z,20.50
2022-12-28T13:42:57.507Z,16.00
2022-12-28T13:46:09.188Z,23.30
2022-12-28T13:49:15.730Z,19.90
2022-12-28T13:52:28.819Z,19.93
2022-12-28T13:55:41.442Z,20.17
2022-12-28T13:58:51.688Z,22.23
2022-12-28T14:01:58.237Z,22.03
2022-12-28T14:05:04.829Z,20.53
2022-12-28T14:08:12.181Z,24.43
2022-12-28T14:11:20.632Z,19.27
2022-12-28T14:14:27.167Z,19.53
2022-12-28T14:17:34.300Z,22.00
2022-12-28T14:20:48.433Z,17.60
2022-12-28T14:24:04.587Z,18.43
2022-12-28T14:27:12.542Z,17.00
2022-12-28T14:30:25.305Z,17.03
2022-12-28T14:33:35.919Z,14.33
2022-12-28T14:36:48.976Z,37.10
2022-12-28T14:40:01.384Z,35.17
2022-12-28T14:43:20.008Z,19.97
2022-12-28T14:46:34.903Z,22.63
2022-12-28T14:49:42.765Z,20.00
2022-12-28T14:52:50.965Z,28.73
2022-12-28T14:56:04.519Z,31.20
2022-12-28T14:59:19.818Z,40.50
2022-12-28T15:02:43.346Z,33.10
2022-12-28T15:05:51.661Z,37.33
2022-12-28T15:08:59.902Z,28.37
2022-12-28T15:12:12.416Z,26.20
2022-12-28T15:15:20.220Z,30.63
2022-12-28T15:18:27.019Z,32.70
2022-12-28T15:21:33.430Z,40.13
2022-12-28T15:24:41.649Z,36.47
2022-12-28T15:27:51.092Z,21.37
2022-12-28T15:30:58.484Z,19.53
2022-12-28T15:34:05.019Z,15.57
2022-12-28T15:37:11.079Z,16.07
2022-12-28T15:40:17.334Z,29.90
2022-12-28T15:43:23.557Z,37.30
2022-12-28T15:46:31.624Z,42.83
2022-12-28T15:49:38.854Z,38.60
2022-12-28T15:52:45.329Z,41.90
2022-12-28T15:56:00.837Z,41.53
2022-12-28T15:59:09.262Z,43.40
2022-12-28T16:02:17.751Z,48.13
2022-12-28T16:05:24.419Z,45.40
2022-12-28T16:08:30.976Z,35.77
2022-12-28T16:11:37.430Z,46.13
2022-12-28T16:14:44.759Z,41.67
2022-12-28T16:17:57.220Z,31.23
2022-12-28T16:21:04.508Z,30.57
2022-12-28T16:24:11.763Z,26.30
2022-12-28T16:27:18.065Z,31.10
2022-12-28T16:30:24.650Z,32.57
2022-12-28T16:33:32.523Z,23.40
2022-12-28T16:36:39.189Z,25.67
2022-12-28T16:39:45.781Z,26.37
2022-12-28T16:42:52.422Z,20.07
2022-12-28T16:45:58.570Z,19.77
2022-12-28T16:49:06.164Z,25.30
2022-12-28T16:52:12.154Z,28.93
2022-12-28T16:55:18.223Z,23.43
2022-12-28T16:58:24.393Z,27.07
2022-12-28T17:01:30.652Z,28.87
2022-12-28T17:04:38.355Z,30.27
2022-12-28T17:07:44.840Z,26.77
2022-12-28T17:10:51.148Z,28.70
2022-12-28T17:14:01.486Z,28.00
2022-12-28T17:17:08.203Z,32.03
2022-12-28T17:20:16.402Z,42.83
2022-12-28T17:23:22.640Z,53.97
2022-12-28T17:26:29.142Z,64.83
2022-12-28T17:29:35.240Z,38.83
2022-12-28T17:32:41.892Z,27.30
2022-12-28T17:35:49.539Z,35.57
2022-12-28T17:38:56.493Z,46.03
2022-12-28T17:42:02.837Z,43.70
2022-12-28T17:45:11.902Z,36.50
2022-12-28T17:48:20.336Z,45.47
2022-12-28T17:51:29.478Z,33.33
2022-12-28T17:54:36.141Z,43.83
2022-12-28T17:57:42.424Z,38.93
2022-12-28T18:00:48.718Z,39.07
2022-12-28T18:03:55.347Z,40.37
2022-12-28T18:07:03.364Z,34.80
2022-12-28T18:10:10.876Z,25.60
2022-12-28T18:13:17.668Z,27.23
2022-12-28T18:16:24.217Z,22.23
2022-12-28T18:19:30.482Z,44.10
2022-12-28T18:22:38.551Z,28.37
2022-12-28T18:25:45.268Z,37.50
2022-12-28T18:28:51.443Z,37.20
2022-12-28T18:31:57.439Z,46.07
2022-12-28T18:35:03.675Z,46.43
2022-12-28T18:38:11.264Z,36.10
2022-12-28T18:41:20.922Z,36.27
2022-12-28T18:44:27.730Z,37.60
2022-12-28T18:47:35.467Z,35.30
2022-12-28T18:50:41.815Z,48.10
2022-12-28T18:53:50.424Z,29.80
2022-12-28T18:56:57.420Z,28.77
2022-12-28T19:00:03.662Z,26.77
2022-12-28T19:03:10.113Z,22.90
2022-12-28T19:06:16.716Z,27.17
2022-12-28T19:09:24.248Z,28.60
2022-12-28T19:12:30.689Z,31.50
2022-12-28T19:15:37.093Z,33.37
2022-12-28T19:18:43.351Z,44.97
2022-12-28T19:21:56.529Z,33.73
2022-12-28T19:25:07.136Z,32.67
2022-12-28T19:28:13.488Z,45.13
2022-12-28T19:31:20.065Z,50.17
2022-12-28T19:34:26.503Z,58.63
2022-12-28T19:37:32.813Z,52.20
2022-12-28T19:40:40.634Z,46.30
2022-12-28T19:43:46.898Z,50.73
2022-12-28T19:46:54.213Z,46.27
2022-12-28T19:50:00.549Z,42.50
2022-12-28T19:53:06.834Z,27.63
2022-12-28T19:56:16.435Z,22.70
2022-12-28T19:59:22.496Z,22.87
2022-12-28T20:02:31.766Z,21.73
2022-12-28T20:05:38.459Z,20.43
2022-12-28T20:08:47.193Z,16.80
2022-12-28T20:11:55.063Z,14.20
2022-12-28T20:15:01.144Z,11.47
2022-12-28T20:18:07.575Z,15.77
2022-12-28T20:21:21.822Z,16.17
2022-12-28T20:24:28.680Z,21.30
2022-12-28T20:27:36.916Z,28.53
2022-12-28T20:30:43.472Z,32.60
2022-12-28T20:33:50.326Z,35.37
2022-12-28T20:36:56.396Z,35.47
2022-12-28T20:40:02.381Z,26.53
2022-12-28T20:43:24.984Z,17.93
2022-12-28T20:46:31.391Z,18.37
2022-12-28T20:49:37.636Z,27.47
2022-12-28T20:52:43.983Z,25.30
2022-12-28T20:55:50.390Z,18.90
2022-12-28T20:58:58.346Z,20.83
2022-12-28T21:02:05.004Z,20.60
2022-12-28T21:05:11.816Z,24.90
2022-12-28T21:08:18.183Z,25.60
2022-12-28T21:11:24.644Z,33.57
2022-12-28T21:14:32.401Z,29.63
2022-12-28T21:17:39.139Z,28.07
2022-12-28T21:20:47.306Z,24.77
2022-12-28T21:23:53.893Z,27.57
2022-12-28T21:27:00.404Z,24.30
2022-12-28T21:30:09.848Z,20.17
2022-12-28T21:33:16.412Z,22.23
2022-12-28T21:36:23.147Z,27.50
2022-12-28T21:39:29.406Z,23.90
2022-12-28T21:42:36.268Z,20.73
2022-12-28T21:45:43.828Z,18.67
2022-12-28T21:48:50.297Z,13.13
2022-12-28T21:51:59.652Z,15.77
2022-12-28T21:55:20.660Z,19.00
2022-12-28T21:58:26.817Z,33.47
2022-12-28T22:01:52.244Z,28.40
2022-12-28T22:05:15.993Z,36.77
2022-12-28T22:08:39.689Z,38.77
2022-12-28T22:12:03.543Z,30.87
2022-12-28T22:15:29.055Z,12.43
2022-12-28T22:19:00.839Z,9.67
2022-12-28T22:22:03.596Z,9.07
2022-12-28T22:25:11.647Z,10.83
2022-12-28T22:28:17.868Z,8.80
2022-12-28T22:31:24.194Z,12.00
2022-12-28T22:34:32.332Z,9.43
2022-12-28T22:37:38.644Z,16.57
2022-12-28T22:40:44.936Z,19.40
2022-12-28T22:43:51.946Z,25.37
2022-12-28T22:46:57.995Z,20.17
2022-12-28T22:50:07.428Z,21.43
2022-12-28T22:53:13.714Z,19.60
2022-12-28T22:56:21.185Z,16.63
2022-12-28T22:59:27.274Z,28.03
2022-12-28T23:02:33.629Z,35.63
2022-12-28T23:05:41.151Z,37.73
2022-12-28T23:08:48.263Z,37.13
2022-12-28T23:11:54.687Z,33.00
2022-12-28T23:15:20.060Z,17.97
2022-12-28T23:18:43.894Z,19.13
2022-12-28T23:22:08.936Z,14.33
2022-12-28T23:25:36.553Z,11.23
2022-12-28T23:28:43.297Z,8.53
2022-12-28T23:31:49.869Z,11.33
2022-12-28T23:34:56.213Z,13.17
2022-12-28T23:38:03.506Z,13.63
2022-12-28T23:41:27.570Z,20.17
2022-12-28T23:44:34.413Z,21.13
2022-12-28T23:47:40.728Z,24.87
2022-12-28T23:50:47.051Z,29.13
2022-12-28T23:53:54.874Z,32.03
2022-12-28T23:57:01.378Z,30.70
